createdAt,value
2023-04-16T00:02:23.309Z,9.69
2023-04-16T00:04:54.033Z,9.62
2023-04-16T00:07:24.532Z,9.69
2023-04-16T00:09:57.189Z,9.72
2023-04-16T00:12:29.354Z,9.80
2023-04-16T00:15:00.704Z,9.70
2023-04-16T00:17:31.664Z,9.68
2023-04-16T00:20:04.187Z,9.65
2023-04-16T00:22:34.892Z,9.63
2023-04-16T00:25:06.670Z,9.62
2023-04-16T00:27:39.826Z,9.76
2023-04-16T00:30:12.373Z,9.72
2023-04-16T00:32:44.429Z,9.72
2023-04-16T00:35:16.103Z,9.65
2023-04-16T00:37:48.886Z,9.68
2023-04-16T00:40:19.574Z,9.70
2023-04-16T00:42:52.230Z,9.60
2023-04-16T00:45:27.571Z,9.70
2023-04-16T00:48:00.730Z,9.65
2023-04-16T00:50:33.523Z,9.57
2023-04-16T00:53:06.036Z,9.55
2023-04-16T00:55:37.153Z,9.54
2023-04-16T00:58:09.708Z,9.58
2023-04-16T01:00:44.309Z,9.56
2023-04-16T01:03:15.418Z,9.53
2023-04-16T01:05:48.996Z,9.52
2023-04-16T01:08:21.554Z,9.52
2023-04-16T01:10:52.375Z,9.50
2023-04-16T01:13:23.323Z,9.44
2023-04-16T01:15:54.242Z,9.51
2023-04-16T01:18:26.950Z,9.48
2023-04-16T01:20:57.572Z,9.52
2023-04-16T01:23:28.202Z,9.64
2023-04-16T01:25:58.965Z,9.60
2023-04-16T01:28:29.589Z,9.50
2023-04-16T01:31:00.730Z,9.50
2023-04-16T01:33:31.779Z,9.46
2023-04-16T01:36:02.248Z,9.50
2023-04-16T01:38:32.931Z,9.56
2023-04-16T01:41:04.820Z,9.46
2023-04-16T01:43:35.381Z,9.46
2023-04-16T01:46:32.310Z,9.57
2023-04-16T01:49:06.642Z,9.49
2023-04-16T01:51:37.357Z,9.46
2023-04-16T01:54:08.425Z,9.38
2023-04-16T01:56:40.674Z,9.34
2023-04-16T01:59:12.340Z,9.46
2023-04-16T02:01:43.669Z,9.44
2023-04-16T02:04:14.601Z,9.32
2023-04-16T02:06:45.232Z,9.42
2023-04-16T02:09:16.314Z,9.48
2023-04-16T02:11:47.812Z,9.45
2023-04-16T02:14:20.035Z,9.37
2023-04-16T02:16:50.862Z,9.38
2023-04-16T02:19:23.285Z,9.48
2023-04-16T02:21:55.095Z,9.41
2023-04-16T02:24:25.764Z,9.32
2023-04-16T02:26:57.450Z,9.25
2023-04-16T02:29:28.871Z,9.28
2023-04-16T02:31:59.869Z,9.21
2023-04-16T02:34:35.134Z,9.34
2023-04-16T02:37:05.954Z,9.36
2023-04-16T02:39:36.523Z,9.37
2023-04-16T02:42:10.246Z,9.28
2023-04-16T02:44:43.887Z,9.34
2023-04-16T02:47:17.360Z,9.31
2023-04-16T02:49:47.951Z,9.32
2023-04-16T02:52:24.749Z,9.16
2023-04-16T02:54:55.909Z,9.19
2023-04-16T02:57:27.819Z,9.15
2023-04-16T02:59:58.562Z,9.22
2023-04-16T03:02:30.311Z,9.15
2023-04-16T03:05:01.327Z,9.08
2023-04-16T03:07:31.862Z,9.14
2023-04-16T03:10:02.818Z,9.14
2023-04-16T03:12:33.457Z,9.06
2023-04-16T03:15:04.611Z,9.10
2023-04-16T03:17:36.801Z,9.10
2023-04-16T03:20:09.210Z,8.98
2023-04-16T03:22:40.344Z,9.04
2023-04-16T03:25:11.374Z,9.00
2023-04-16T03:27:42.105Z,9.00
2023-04-16T03:30:14.386Z,8.94
2023-04-16T03:32:45.095Z,8.91
2023-04-16T03:35:16.060Z,9.10
2023-04-16T03:37:46.889Z,9.05
2023-04-16T03:40:19.547Z,9.04
2023-04-16T03:42:50.486Z,8.95
2023-04-16T03:45:23.493Z,8.85
2023-04-16T03:47:55.408Z,8.96
2023-04-16T03:50:26.166Z,9.05
2023-04-16T03:52:57.005Z,8.90
2023-04-16T03:55:27.661Z,8.94
2023-04-16T03:57:58.274Z,8.96
2023-04-16T04:00:29.070Z,9.02
2023-04-16T04:02:59.835Z,8.96
2023-04-16T04:05:32.984Z,8.92
2023-04-16T04:08:04.198Z,8.87
2023-04-16T04:10:36.273Z,8.91
2023-04-16T04:13:10.475Z,9.02
2023-04-16T04:15:41.392Z,8.99
2023-04-16T04:18:11.997Z,8.89
2023-04-16T04:20:42.828Z,8.90
2023-04-16T04:23:13.318Z,8.90
2023-04-16T04:25:46.080Z,8.75
2023-04-16T04:28:17.237Z,8.96
2023-04-16T04:30:47.908Z,8.84
2023-04-16T04:33:19.035Z,8.80
2023-04-16T04:35:49.691Z,8.82
2023-04-16T04:38:23.798Z,8.82
2023-04-16T04:40:54.607Z,8.81
2023-04-16T04:43:26.113Z,8.80
2023-04-16T04:45:56.772Z,8.82
2023-04-16T04:48:27.861Z,8.84
2023-04-16T04:50:59.925Z,8.84
2023-04-16T04:53:30.913Z,8.82
2023-04-16T04:56:09.300Z,8.92
2023-04-16T04:58:35.120Z,8.92
2023-04-16T05:01:07.129Z,8.78
2023-04-16T05:03:37.887Z,8.82
2023-04-16T05:06:08.870Z,8.84
2023-04-16T05:08:39.478Z,8.85
2023-04-16T05:11:09.910Z,8.84
2023-04-16T05:13:41.760Z,8.84
2023-04-16T05:16:12.592Z,8.95
2023-04-16T05:18:44.434Z,8.96
2023-04-16T05:21:15.107Z,8.97
2023-04-16T05:23:47.182Z,8.97
2023-04-16T05:26:17.808Z,9.08
2023-04-16T05:28:48.756Z,8.94
2023-04-16T05:31:19.378Z,9.04
2023-04-16T05:33:51.660Z,8.94
2023-04-16T05:36:22.629Z,8.90
2023-04-16T05:38:56.864Z,9.00
2023-04-16T05:41:28.271Z,8.79
2023-04-16T05:43:58.974Z,8.90
2023-04-16T05:46:29.977Z,8.98
2023-04-16T05:49:00.671Z,8.94
2023-04-16T05:51:32.408Z,9.02
2023-04-16T05:54:02.897Z,8.93
2023-04-16T05:56:33.388Z,9.00
2023-04-16T05:59:04.119Z,9.04
2023-04-16T06:01:34.851Z,9.02
2023-04-16T06:04:05.806Z,9.05
2023-04-16T06:06:37.479Z,9.18
2023-04-16T06:09:08.323Z,9.21
2023-04-16T06:11:39.338Z,9.26
2023-04-16T06:14:09.939Z,9.12
2023-04-16T06:16:42.873Z,9.11
2023-04-16T06:19:13.400Z,9.33
2023-04-16T06:21:45.436Z,9.34
2023-04-16T06:24:16.001Z,9.24
2023-04-16T06:26:48.142Z,9.22
2023-04-16T06:29:18.792Z,9.20
2023-04-16T06:31:50.028Z,9.26
2023-04-16T06:34:20.845Z,9.40
2023-04-16T06:36:52.884Z,9.30
2023-04-16T06:39:23.402Z,9.30
2023-04-16T06:41:54.101Z,9.40
2023-04-16T06:44:26.140Z,9.37
2023-04-16T06:46:56.846Z,9.28
2023-04-16T06:49:27.414Z,9.21
2023-04-16T06:51:58.995Z,9.30
2023-04-16T06:54:29.861Z,9.42
2023-04-16T06:57:01.429Z,9.24
2023-04-16T06:59:33.499Z,9.20
2023-04-16T07:02:06.255Z,9.37
2023-04-16T07:04:37.277Z,9.44
2023-04-16T07:07:09.246Z,9.25
2023-04-16T07:09:39.885Z,9.36
2023-04-16T07:12:14.022Z,9.25
2023-04-16T07:14:44.698Z,9.26
2023-04-16T07:17:16.808Z,9.34
2023-04-16T07:19:48.120Z,9.36
2023-04-16T07:22:20.264Z,9.33
2023-04-16T07:24:50.901Z,9.41
2023-04-16T07:27:21.444Z,9.40
2023-04-16T07:29:52.988Z,9.25
2023-04-16T07:32:24.029Z,9.22
2023-04-16T07:34:56.074Z,9.32
2023-04-16T07:37:28.237Z,9.33
2023-04-16T07:40:00.840Z,9.36
2023-04-16T07:42:31.546Z,9.58
2023-04-16T07:45:02.033Z,9.54
2023-04-16T07:47:33.766Z,9.58
2023-04-16T07:50:04.695Z,9.58
2023-04-16T07:52:35.728Z,9.54
2023-04-16T07:55:06.669Z,9.58
2023-04-16T07:57:37.480Z,9.46
2023-04-16T08:00:10.272Z,9.61
2023-04-16T08:02:42.173Z,9.54
2023-04-16T08:05:13.522Z,9.62
2023-04-16T08:07:45.558Z,9.52
2023-04-16T08:10:19.073Z,9.38
2023-04-16T08:12:49.368Z,9.49
2023-04-16T08:15:21.213Z,9.46
2023-04-16T08:17:51.798Z,9.38
2023-04-16T08:20:22.296Z,9.48
2023-04-16T08:22:56.160Z,9.34
2023-04-16T08:25:26.807Z,9.36
2023-04-16T08:27:57.400Z,9.46
2023-04-16T08:30:32.977Z,9.38
2023-04-16T08:33:03.638Z,9.35
2023-04-16T08:35:34.452Z,9.38
2023-04-16T08:38:07.249Z,9.40
2023-04-16T08:40:43.622Z,9.52
2023-04-16T08:43:16.302Z,9.56
2023-04-16T08:45:48.560Z,9.62
2023-04-16T08:48:22.841Z,9.37
2023-04-16T08:50:55.306Z,9.40
2023-04-16T08:53:32.403Z,9.40
2023-04-16T08:56:05.401Z,9.38
2023-04-16T08:58:37.865Z,9.42
2023-04-16T09:01:11.281Z,9.50
2023-04-16T09:03:42.911Z,9.57
2023-04-16T09:06:14.463Z,9.76
2023-04-16T09:08:46.702Z,9.70
2023-04-16T09:11:19.065Z,10.06
2023-04-16T09:13:49.584Z,10.16
2023-04-16T09:16:21.966Z,10.06
2023-04-16T09:18:53.410Z,10.15
2023-04-16T09:21:24.189Z,10.23
2023-04-16T09:23:56.553Z,10.16
2023-04-16T09:26:29.101Z,10.14
2023-04-16T09:28:59.638Z,10.20
2023-04-16T09:31:30.653Z,10.14
2023-04-16T09:34:11.169Z,10.36
2023-04-16T09:36:41.607Z,10.12
2023-04-16T09:39:15.227Z,10.10
2023-04-16T09:41:47.766Z,10.00
2023-04-16T09:44:18.343Z,9.97
2023-04-16T09:46:48.820Z,9.94
2023-04-16T09:49:21.000Z,10.08
2023-04-16T09:51:54.293Z,10.20
2023-04-16T09:54:27.781Z,10.12
2023-04-16T09:56:58.686Z,10.30
2023-04-16T09:59:31.872Z,10.30
2023-04-16T10:02:14.797Z,10.18
2023-04-16T10:04:53.070Z,10.24
2023-04-16T10:07:24.906Z,10.44
2023-04-16T10:10:01.794Z,10.56
2023-04-16T10:12:50.528Z,10.88
2023-04-16T10:15:27.154Z,11.01
2023-04-16T10:18:00.520Z,11.10
2023-04-16T10:20:31.359Z,11.23
2023-04-16T10:23:04.116Z,10.86
2023-04-16T10:25:35.727Z,10.96
2023-04-16T10:28:07.705Z,10.68
2023-04-16T10:30:40.313Z,10.54
2023-04-16T10:33:11.132Z,10.46
2023-04-16T10:35:43.354Z,10.74
2023-04-16T10:38:28.406Z,10.73
2023-04-16T10:41:05.288Z,10.80
2023-04-16T10:43:48.372Z,11.01
2023-04-16T10:46:38.368Z,11.30
2023-04-16T10:49:20.278Z,11.52
2023-04-16T10:51:56.863Z,11.85
2023-04-16T10:54:29.802Z,11.68
2023-04-16T10:57:04.600Z,11.66
2023-04-16T10:59:41.557Z,12.01
2023-04-16T11:02:18.064Z,12.40
2023-04-16T11:04:53.210Z,12.40
2023-04-16T11:07:36.628Z,12.48
2023-04-16T11:10:11.963Z,12.78
2023-04-16T11:12:49.999Z,12.98
2023-04-16T11:15:22.921Z,13.42
2023-04-16T11:17:55.667Z,13.22
2023-04-16T11:20:27.967Z,13.20
2023-04-16T11:22:59.342Z,13.10
2023-04-16T11:25:34.068Z,12.65
2023-04-16T11:28:06.800Z,12.04
2023-04-16T11:30:39.662Z,12.14
2023-04-16T11:33:23.675Z,11.87
2023-04-16T11:36:00.883Z,11.85
2023-04-16T11:38:36.981Z,11.58
2023-04-16T11:41:08.026Z,11.46
2023-04-16T11:43:38.658Z,11.11
2023-04-16T11:46:24.500Z,11.32
2023-04-16T11:48:55.618Z,11.42
2023-04-16T11:51:26.493Z,11.52
2023-04-16T11:54:00.032Z,11.56
2023-04-16T11:56:36.522Z,11.72
2023-04-16T11:59:15.608Z,11.80
2023-04-16T12:01:48.416Z,11.71
2023-04-16T12:04:21.960Z,11.42
2023-04-16T12:07:12.135Z,10.97
2023-04-16T12:09:44.824Z,10.86
2023-04-16T12:12:31.480Z,10.86
2023-04-16T12:15:04.035Z,10.72
2023-04-16T12:17:36.740Z,10.78
2023-04-16T12:20:16.131Z,10.70
2023-04-16T12:22:50.054Z,10.72
2023-04-16T12:25:21.155Z,10.70
2023-04-16T12:27:54.293Z,10.86
2023-04-16T12:30:26.723Z,10.86
2023-04-16T12:33:18.025Z,10.82
2023-04-16T12:35:52.735Z,10.88
2023-04-16T12:38:25.837Z,10.96
2023-04-16T12:40:58.450Z,10.88
2023-04-16T12:43:30.032Z,10.96
2023-04-16T12:46:04.119Z,11.03
2023-04-16T12:48:39.061Z,10.98
2023-04-16T12:51:14.039Z,10.92
2023-04-16T12:53:46.147Z,10.94
2023-04-16T12:56:19.740Z,10.84
2023-04-16T12:58:53.111Z,10.73
2023-04-16T13:01:25.938Z,10.59
2023-04-16T13:03:56.755Z,10.47
2023-04-16T13:06:37.842Z,10.38
2023-04-16T13:09:10.230Z,10.31
2023-04-16T13:11:44.134Z,10.46
2023-04-16T13:14:14.618Z,10.44
2023-04-16T13:16:48.941Z,10.50
2023-04-16T13:19:21.284Z,10.65
2023-04-16T13:21:53.568Z,10.90
2023-04-16T13:24:24.342Z,10.94
2023-04-16T13:26:56.498Z,11.04
2023-04-16T13:29:27.078Z,11.25
2023-04-16T13:31:59.553Z,11.41
2023-04-16T13:34:30.118Z,11.68
2023-04-16T13:37:00.875Z,11.73
2023-04-16T13:39:34.063Z,11.54
2023-04-16T13:42:06.286Z,11.73
2023-04-16T13:44:38.274Z,11.65
2023-04-16T13:47:08.745Z,11.58
2023-04-16T13:49:39.375Z,11.88
2023-04-16T13:52:11.029Z,11.68
2023-04-16T13:54:45.245Z,11.64
2023-04-16T13:57:16.395Z,11.65
2023-04-16T13:59:47.192Z,11.72
2023-04-16T14:02:19.012Z,11.96
2023-04-16T14:04:52.618Z,12.03
2023-04-16T14:07:25.699Z,12.01
2023-04-16T14:09:57.744Z,11.82
2023-04-16T14:12:30.132Z,11.65
2023-04-16T14:15:04.323Z,11.94
2023-04-16T14:17:34.751Z,11.92
2023-04-16T14:20:06.945Z,11.98
2023-04-16T14:22:37.582Z,12.07
2023-04-16T14:25:10.486Z,12.00
2023-04-16T14:27:42.430Z,11.94
2023-04-16T14:30:13.347Z,11.90
2023-04-16T14:32:44.442Z,11.87
2023-04-16T14:35:25.742Z,12.00
2023-04-16T14:37:58.459Z,11.89
2023-04-16T14:40:29.928Z,11.76
2023-04-16T14:43:01.518Z,11.54
2023-04-16T14:45:32.460Z,11.40
2023-04-16T14:48:03.176Z,11.38
2023-04-16T14:50:41.730Z,11.31
2023-04-16T14:53:15.317Z,11.38
2023-04-16T14:55:45.847Z,11.36
2023-04-16T14:58:16.541Z,11.18
2023-04-16T15:00:49.461Z,10.98
2023-04-16T15:03:20.259Z,10.86
2023-04-16T15:05:53.567Z,10.70
2023-04-16T15:08:24.798Z,10.58
2023-04-16T15:10:57.211Z,10.54
2023-04-16T15:13:30.849Z,10.41
2023-04-16T15:16:02.876Z,10.54
2023-04-16T15:18:34.834Z,10.52
2023-04-16T15:21:05.494Z,10.55
2023-04-16T15:23:36.924Z,10.64
2023-04-16T15:26:07.577Z,10.76
2023-04-16T15:28:39.638Z,10.65
2023-04-16T15:31:10.378Z,10.78
2023-04-16T15:33:40.884Z,10.92
2023-04-16T15:36:12.033Z,10.84
2023-04-16T15:38:43.108Z,10.64
2023-04-16T15:41:13.702Z,10.75
2023-04-16T15:43:46.162Z,10.96
2023-04-16T15:46:17.116Z,10.82
2023-04-16T15:48:48.400Z,10.83
2023-04-16T15:51:19.283Z,10.92
2023-04-16T15:53:50.496Z,10.76
2023-04-16T15:56:21.107Z,10.82
2023-04-16T15:58:54.598Z,10.74
2023-04-16T16:01:25.380Z,10.83
2023-04-16T16:03:56.525Z,10.70
2023-04-16T16:06:28.608Z,10.82
2023-04-16T16:09:01.362Z,10.68
2023-04-16T16:11:33.133Z,10.62
2023-04-16T16:14:03.650Z,10.56
2023-04-16T16:16:34.553Z,10.48
2023-04-16T16:19:07.824Z,10.45
2023-04-16T16:21:41.146Z,10.41
2023-04-16T16:24:11.741Z,10.44
2023-04-16T16:26:44.415Z,10.20
2023-04-16T16:29:17.054Z,10.14
2023-04-16T16:31:49.250Z,10.24
2023-04-16T16:34:21.288Z,10.21
2023-04-16T16:36:52.538Z,10.13
2023-04-16T16:39:31.237Z,10.07
2023-04-16T16:41:58.053Z,10.14
2023-04-16T16:44:30.721Z,10.09
2023-04-16T16:47:01.304Z,10.01
2023-04-16T16:49:31.877Z,10.08
2023-04-16T16:52:02.814Z,10.17
2023-04-16T16:54:36.605Z,10.01
2023-04-16T16:57:08.067Z,10.11
2023-04-16T16:59:38.622Z,9.96
2023-04-16T17:02:09.690Z,9.84
2023-04-16T17:04:40.470Z,9.85
2023-04-16T17:07:12.815Z,9.82
2023-04-16T17:09:44.809Z,9.81
2023-04-16T17:12:15.865Z,9.79
2023-04-16T17:14:50.238Z,9.76
2023-04-16T17:17:24.307Z,9.76
2023-04-16T17:19:56.248Z,9.74
2023-04-16T17:22:26.712Z,9.76
2023-04-16T17:24:58.764Z,9.68
2023-04-16T17:27:30.995Z,9.80
2023-04-16T17:30:02.832Z,9.72
2023-04-16T17:32:33.973Z,9.75
2023-04-16T17:35:07.207Z,9.66
2023-04-16T17:37:37.756Z,9.65
2023-04-16T17:40:13.554Z,9.70
2023-04-16T17:42:49.100Z,9.78
2023-04-16T17:45:20.410Z,9.63
2023-04-16T17:47:52.706Z,9.74
2023-04-16T17:50:23.245Z,9.69
2023-04-16T17:52:54.120Z,9.58
2023-04-16T17:55:29.277Z,9.48
2023-04-16T17:57:56.788Z,9.62
2023-04-16T18:00:27.483Z,9.54
2023-04-16T18:02:59.825Z,9.48
2023-04-16T18:05:33.475Z,9.59
2023-04-16T18:08:05.970Z,9.54
2023-04-16T18:10:41.756Z,9.51
2023-04-16T18:13:12.347Z,9.48
2023-04-16T18:15:43.162Z,9.50
2023-04-16T18:18:15.180Z,9.49
2023-04-16T18:20:46.965Z,9.51
2023-04-16T18:23:17.660Z,9.46
2023-04-16T18:25:48.938Z,9.46
2023-04-16T18:28:21.279Z,9.40
2023-04-16T18:30:59.345Z,9.28
2023-04-16T18:33:52.580Z,9.24
2023-04-16T18:36:04.169Z,9.13
2023-04-16T18:38:35.119Z,9.14
2023-04-16T18:41:07.771Z,9.20
2023-04-16T18:43:38.375Z,9.29
2023-04-16T18:46:08.879Z,9.11
2023-04-16T18:48:39.891Z,9.18
2023-04-16T18:51:11.167Z,9.10
2023-04-16T18:53:43.479Z,9.01
2023-04-16T18:56:14.056Z,8.96
2023-04-16T18:58:44.581Z,8.98
2023-04-16T19:01:16.745Z,8.92
2023-04-16T19:03:47.628Z,8.98
2023-04-16T19:06:19.665Z,8.98
2023-04-16T19:08:50.818Z,9.05
2023-04-16T19:11:21.584Z,8.94
2023-04-16T19:13:53.634Z,8.92
2023-04-16T19:16:24.531Z,8.93
2023-04-16T19:18:55.041Z,8.99
2023-04-16T19:21:29.477Z,9.05
2023-04-16T19:24:00.198Z,9.04
2023-04-16T19:26:30.668Z,9.02
2023-04-16T19:29:01.420Z,8.99
2023-04-16T19:31:33.894Z,9.02
2023-04-16T19:34:04.496Z,8.98
2023-04-16T19:36:35.109Z,8.94
2023-04-16T19:39:06.394Z,8.98
2023-04-16T19:41:37.195Z,8.90
2023-04-16T19:44:11.130Z,8.98
2023-04-16T19:46:41.921Z,8.86
2023-04-16T19:49:12.778Z,8.99
2023-04-16T19:51:46.076Z,8.90
2023-04-16T19:54:18.838Z,8.94
2023-04-16T19:56:52.336Z,8.87
2023-04-16T19:59:24.685Z,8.90
2023-04-16T20:01:57.121Z,8.98
2023-04-16T20:04:28.849Z,8.88
2023-04-16T20:06:59.376Z,8.95
2023-04-16T20:09:29.952Z,8.82
2023-04-16T20:12:01.582Z,8.70
2023-04-16T20:14:32.176Z,8.78
2023-04-16T20:17:03.680Z,8.68
2023-04-16T20:19:37.164Z,8.70
2023-04-16T20:22:07.744Z,8.72
2023-04-16T20:24:38.598Z,8.69
2023-04-16T20:27:09.192Z,8.76
2023-04-16T20:29:39.898Z,8.86
2023-04-16T20:32:10.636Z,8.64
2023-04-16T20:34:42.795Z,8.72
2023-04-16T20:37:15.233Z,8.64
2023-04-16T20:39:46.817Z,8.62
2023-04-16T20:42:20.508Z,8.76
2023-04-16T20:44:52.976Z,8.52
2023-04-16T20:47:25.068Z,8.58
2023-04-16T20:49:55.917Z,8.46
2023-04-16T20:52:27.574Z,8.51
2023-04-16T20:54:58.127Z,8.44
2023-04-16T20:57:29.886Z,8.29
2023-04-16T21:00:00.433Z,8.31
2023-04-16T21:02:31.175Z,8.54
2023-04-16T21:05:02.370Z,8.68
2023-04-16T21:07:33.165Z,8.62
2023-04-16T21:10:04.050Z,8.58
2023-04-16T21:12:36.193Z,8.54
2023-04-16T21:15:07.394Z,8.60
2023-04-16T21:17:50.919Z,8.42
2023-04-16T21:20:23.462Z,8.40
2023-04-16T21:22:55.978Z,8.31
2023-04-16T21:25:28.341Z,8.26
2023-04-16T21:27:59.721Z,8.12
2023-04-16T21:30:32.595Z,8.28
2023-04-16T21:33:04.237Z,8.09
2023-04-16T21:35:35.795Z,8.17
2023-04-16T21:38:06.447Z,8.02
2023-04-16T21:40:36.997Z,8.10
2023-04-16T21:43:12.088Z,8.10
2023-04-16T21:45:43.320Z,8.03
2023-04-16T21:48:14.060Z,7.98
2023-04-16T21:50:44.644Z,8.04
2023-04-16T21:53:15.185Z,7.96
2023-04-16T21:55:47.144Z,7.82
2023-04-16T21:58:17.782Z,7.88
2023-04-16T22:00:48.433Z,7.84
2023-04-16T22:03:26.774Z,7.99
2023-04-16T22:06:01.396Z,7.94
2023-04-16T22:08:32.124Z,7.87
2023-04-16T22:11:04.817Z,7.84
2023-04-16T22:13:36.696Z,7.78
2023-04-16T22:16:09.500Z,7.76
2023-04-16T22:18:41.194Z,7.78
2023-04-16T22:21:11.828Z,7.72
2023-04-16T22:23:45.529Z,7.88
2023-04-16T22:26:16.244Z,7.78
2023-04-16T22:28:47.387Z,7.75
2023-04-16T22:31:17.791Z,7.81
2023-04-16T22:33:48.438Z,7.80
2023-04-16T22:36:19.297Z,7.84
2023-04-16T22:38:50.855Z,7.86
2023-04-16T22:41:23.161Z,7.79
2023-04-16T22:43:56.312Z,7.83
2023-04-16T22:46:28.758Z,7.76
2023-04-16T22:48:59.489Z,7.74
2023-04-16T22:51:30.355Z,7.96
2023-04-16T22:54:00.805Z,7.92
2023-04-16T22:56:31.279Z,7.92
2023-04-16T22:59:02.012Z,7.78
2023-04-16T23:01:32.884Z,7.86
2023-04-16T23:04:04.055Z,7.77
2023-04-16T23:06:34.953Z,7.72
2023-04-16T23:09:08.272Z,7.77
2023-04-16T23:11:39.122Z,7.72
2023-04-16T23:14:10.727Z,7.74
2023-04-16T23:16:43.023Z,7.80
2023-04-16T23:19:15.242Z,7.69
2023-04-16T23:21:46.126Z,7.79
2023-04-16T23:24:18.192Z,7.81
2023-04-16T23:26:50.149Z,7.87
2023-04-16T23:29:21.628Z,7.75
2023-04-16T23:31:52.381Z,7.87
2023-04-16T23:34:23.020Z,7.74
2023-04-16T23:36:55.361Z,7.80
2023-04-16T23:39:26.310Z,7.74
2023-04-16T23:41:57.541Z,7.83
2023-04-16T23:44:28.080Z,7.88
2023-04-16T23:46:58.564Z,7.82
2023-04-16T23:49:29.355Z,7.89
2023-04-16T23:52:00.093Z,7.88
2023-04-16T23:54:32.815Z,7.74
2023-04-16T23:57:04.729Z,7.74
2023-04-16T23:59:37.337Z,7.80
